createdAt,value
2018-08-13T00:00:54.439Z,0.00
2018-08-13T00:01:46.370Z,0.00
2018-08-13T00:02:46.366Z,0.00
2018-08-13T00:03:54.955Z,0.00
2018-08-13T00:04:46.379Z,0.00
2018-08-13T00:05:46.333Z,0.00
2018-08-13T00:06:46.315Z,0.00
2018-08-13T00:07:46.319Z,0.00
2018-08-13T00:08:46.325Z,0.00
2018-08-13T00:09:46.294Z,0.00
2018-08-13T00:10:46.291Z,0.00
2018-08-13T00:11:46.267Z,0.00
2018-08-13T00:12:46.262Z,0.00
2018-08-13T00:13:46.292Z,0.00
2018-08-13T00:14:46.235Z,0.00
2018-08-13T00:15:46.224Z,0.00
2018-08-13T00:16:46.213Z,0.00
2018-08-13T00:17:46.202Z,0.00
2018-08-13T00:18:46.240Z,0.00
2018-08-13T00:19:46.177Z,0.00
2018-08-13T00:20:46.181Z,0.00
2018-08-13T00:21:46.153Z,0.00
2018-08-13T00:22:46.149Z,0.00
2018-08-13T00:23:46.186Z,0.00
2018-08-13T00:24:46.126Z,0.00
2018-08-13T00:25:46.110Z,0.00
2018-08-13T00:26:46.097Z,0.00
2018-08-13T00:27:46.092Z,0.00
2018-08-13T00:28:46.142Z,0.00
2018-08-13T00:29:46.068Z,0.00
2018-08-13T00:30:46.060Z,0.00
2018-08-13T00:31:46.043Z,0.00
2018-08-13T00:32:46.046Z,0.00
2018-08-13T00:33:55.511Z,0.00
2018-08-13T00:34:46.053Z,0.00
2018-08-13T00:35:46.018Z,0.00
2018-08-13T00:36:46.016Z,0.00
2018-08-13T00:37:45.987Z,0.00
2018-08-13T00:38:45.967Z,0.00
2018-08-13T00:39:45.983Z,0.00
2018-08-13T00:40:45.935Z,0.00
2018-08-13T00:41:45.921Z,0.00
2018-08-13T00:42:53.507Z,0.00
2018-08-13T00:43:45.904Z,0.00
2018-08-13T00:44:45.923Z,0.00
2018-08-13T00:45:53.545Z,0.00
2018-08-13T00:46:45.866Z,0.00
2018-08-13T00:47:45.858Z,0.00
2018-08-13T00:48:53.589Z,0.00
2018-08-13T00:49:45.864Z,0.00
2018-08-13T00:50:45.864Z,0.00
2018-08-13T00:51:53.611Z,0.00
2018-08-13T00:52:45.844Z,0.00
2018-08-13T00:53:45.789Z,0.00
2018-08-13T00:54:53.645Z,0.00
2018-08-13T00:55:45.811Z,0.00
2018-08-13T00:56:45.760Z,0.00
2018-08-13T00:57:45.747Z,0.00
2018-08-13T00:58:45.739Z,0.00
2018-08-13T00:59:45.758Z,0.00
2018-08-13T01:00:45.711Z,0.00
2018-08-13T01:01:45.712Z,0.00
2018-08-13T01:02:45.709Z,0.00
2018-08-13T01:03:45.681Z,0.00
2018-08-13T01:04:45.725Z,0.00
2018-08-13T01:05:45.657Z,0.00
2018-08-13T01:06:54.707Z,0.00
2018-08-13T01:07:45.641Z,0.00
2018-08-13T01:08:45.647Z,0.00
2018-08-13T01:09:45.642Z,0.00
2018-08-13T01:10:45.612Z,0.00
2018-08-13T01:11:45.597Z,0.00
2018-08-13T01:12:54.741Z,0.00
2018-08-13T01:13:45.575Z,0.00
2018-08-13T01:14:45.563Z,0.00
2018-08-13T01:15:53.264Z,0.00
2018-08-13T01:16:45.584Z,0.00
2018-08-13T01:17:45.571Z,0.00
2018-08-13T01:18:53.281Z,0.00
2018-08-13T01:19:45.514Z,0.00
2018-08-13T01:20:45.497Z,0.00
2018-08-13T01:21:53.326Z,0.00
2018-08-13T01:22:45.504Z,0.00
2018-08-13T01:23:45.463Z,0.00
2018-08-13T01:24:45.451Z,0.00
2018-08-13T01:25:45.435Z,0.00
2018-08-13T01:26:45.455Z,0.00
2018-08-13T01:27:54.869Z,0.00
2018-08-13T01:28:45.398Z,0.00
2018-08-13T01:29:45.391Z,0.00
2018-08-13T01:30:53.381Z,0.00
2018-08-13T01:31:45.365Z,0.00
2018-08-13T01:32:45.357Z,0.00
2018-08-13T01:33:45.377Z,0.00
2018-08-13T01:34:45.380Z,0.00
2018-08-13T01:35:45.317Z,0.00
2018-08-13T01:36:52.907Z,0.00
2018-08-13T01:37:45.307Z,0.00
2018-08-13T01:38:45.285Z,0.00
2018-08-13T01:39:54.453Z,0.00
2018-08-13T01:40:45.262Z,0.00
2018-08-13T01:41:45.247Z,0.00
2018-08-13T01:42:52.955Z,0.00
2018-08-13T01:43:45.232Z,0.00
2018-08-13T01:44:45.253Z,0.00
2018-08-13T01:45:53.004Z,0.00
2018-08-13T01:46:45.204Z,0.00
2018-08-13T01:47:45.190Z,0.00
2018-08-13T01:48:45.190Z,0.00
2018-08-13T01:49:45.209Z,0.00
2018-08-13T01:50:45.157Z,0.00
2018-08-13T01:51:45.147Z,0.00
2018-08-13T01:52:45.141Z,0.00
2018-08-13T01:53:45.131Z,0.00
2018-08-13T01:54:45.159Z,0.00
2018-08-13T01:55:45.104Z,0.00
2018-08-13T01:56:45.095Z,0.00
2018-08-13T01:57:45.078Z,0.00
2018-08-13T01:58:45.073Z,0.00
2018-08-13T01:59:45.101Z,0.00
2018-08-13T02:00:45.052Z,0.00
2018-08-13T02:01:45.111Z,0.00
2018-08-13T02:02:45.031Z,0.00
2018-08-13T02:03:45.022Z,0.00
2018-08-13T02:04:45.050Z,0.00
2018-08-13T02:05:44.991Z,0.00
2018-08-13T02:06:44.999Z,0.00
2018-08-13T02:07:44.972Z,0.00
2018-08-13T02:08:44.957Z,0.00
2018-08-13T02:09:44.975Z,0.00
2018-08-13T02:10:44.938Z,0.00
2018-08-13T02:11:44.970Z,0.00
2018-08-13T02:12:44.913Z,0.00
2018-08-13T02:13:44.909Z,0.00
2018-08-13T02:14:44.889Z,0.00
2018-08-13T02:15:44.877Z,0.00
2018-08-13T02:16:44.927Z,0.00
2018-08-13T02:17:44.843Z,0.00
2018-08-13T02:18:44.839Z,0.00
2018-08-13T02:19:44.827Z,0.00
2018-08-13T02:20:44.812Z,0.00
2018-08-13T02:21:44.848Z,0.00
2018-08-13T02:22:44.796Z,0.00
2018-08-13T02:23:44.811Z,0.00
2018-08-13T02:24:44.774Z,0.00
2018-08-13T02:25:44.759Z,0.00
2018-08-13T02:26:44.798Z,0.00
2018-08-13T02:27:44.736Z,0.00
2018-08-13T02:28:44.729Z,0.00
2018-08-13T02:29:44.714Z,0.00
2018-08-13T02:30:44.704Z,0.00
2018-08-13T02:31:44.735Z,0.00
2018-08-13T02:32:44.687Z,0.00
2018-08-13T02:33:44.680Z,0.00
2018-08-13T02:34:44.682Z,0.00
2018-08-13T02:35:44.656Z,0.00
2018-08-13T02:36:44.672Z,0.00
2018-08-13T02:37:44.659Z,0.00
2018-08-13T02:38:44.621Z,0.00
2018-08-13T02:39:44.614Z,0.00
2018-08-13T02:40:44.611Z,0.00
2018-08-13T02:41:44.627Z,0.00
2018-08-13T02:42:44.601Z,0.00
2018-08-13T02:43:44.569Z,0.00
2018-08-13T02:44:44.553Z,0.00
2018-08-13T02:45:44.545Z,0.00
2018-08-13T02:46:44.558Z,0.00
2018-08-13T02:47:44.511Z,0.00
2018-08-13T02:48:52.515Z,0.00
2018-08-13T02:49:44.502Z,0.00
2018-08-13T02:50:44.482Z,0.00
2018-08-13T02:51:44.498Z,0.00
2018-08-13T02:52:44.461Z,0.00
2018-08-13T02:53:44.444Z,0.00
2018-08-13T02:54:44.465Z,0.00
2018-08-13T02:55:44.425Z,0.00
2018-08-13T02:56:44.411Z,0.00
2018-08-13T02:57:44.416Z,0.00
2018-08-13T02:58:44.387Z,0.00
2018-08-13T02:59:44.421Z,0.00
2018-08-13T03:00:44.368Z,0.00
2018-08-13T03:01:44.355Z,0.00
2018-08-13T03:02:44.343Z,0.00
2018-08-13T03:03:44.331Z,0.00
2018-08-13T03:04:44.456Z,0.00
2018-08-13T03:05:44.311Z,0.00
2018-08-13T03:06:44.300Z,0.00
2018-08-13T03:07:44.286Z,0.00
2018-08-13T03:08:44.277Z,0.00
2018-08-13T03:09:44.299Z,0.00
2018-08-13T03:10:44.260Z,0.00
2018-08-13T03:11:44.238Z,0.00
2018-08-13T03:12:44.234Z,4.00
2018-08-13T03:13:44.262Z,4.00
2018-08-13T03:14:44.243Z,4.00
2018-08-13T03:15:44.200Z,0.00
2018-08-13T03:16:44.199Z,4.00
2018-08-13T03:17:44.182Z,4.00
2018-08-13T03:18:44.215Z,8.00
2018-08-13T03:19:44.164Z,4.00
2018-08-13T03:20:44.147Z,8.00
2018-08-13T03:21:52.052Z,8.00
2018-08-13T03:22:44.127Z,8.00
2018-08-13T03:23:44.155Z,12.00
2018-08-13T03:24:44.147Z,12.00
2018-08-13T03:25:44.105Z,12.00
2018-08-13T03:26:44.076Z,12.00
2018-08-13T03:27:44.069Z,20.00
2018-08-13T03:28:44.055Z,20.00
2018-08-13T03:29:44.079Z,24.00
2018-08-13T03:30:53.132Z,24.00
2018-08-13T03:31:44.027Z,28.00
2018-08-13T03:32:44.014Z,32.00
2018-08-13T03:33:51.638Z,32.00
2018-08-13T03:34:43.991Z,36.00
2018-08-13T03:35:44.026Z,44.00
2018-08-13T03:36:43.967Z,44.00
2018-08-13T03:37:43.965Z,48.00
2018-08-13T03:38:43.941Z,56.00
2018-08-13T03:39:51.667Z,64.00
2018-08-13T03:40:43.937Z,68.00
2018-08-13T03:41:43.899Z,76.00
2018-08-13T03:42:43.897Z,80.00
2018-08-13T03:43:43.886Z,88.00
2018-08-13T03:44:43.869Z,96.00
2018-08-13T03:45:53.206Z,104.00
2018-08-13T03:46:43.847Z,112.00
2018-08-13T03:47:43.834Z,120.00
2018-08-13T03:48:51.720Z,128.00
2018-08-13T03:49:43.816Z,140.00
2018-08-13T03:50:43.802Z,148.00
2018-08-13T03:51:52.286Z,160.00
2018-08-13T03:52:43.770Z,172.00
2018-08-13T03:53:43.816Z,188.00
2018-08-13T03:54:43.754Z,208.00
2018-08-13T03:55:43.746Z,228.00
2018-08-13T03:56:43.766Z,248.00
2018-08-13T03:57:51.288Z,276.00
2018-08-13T03:58:43.708Z,312.00
2018-08-13T03:59:43.714Z,352.00
2018-08-13T04:00:43.688Z,388.00
2018-08-13T04:01:43.718Z,432.00
2018-08-13T04:02:43.660Z,468.00
2018-08-13T04:03:43.686Z,496.00
2018-08-13T04:04:43.641Z,528.00
2018-08-13T04:05:43.639Z,552.00
2018-08-13T04:06:43.626Z,560.00
2018-08-13T04:07:43.617Z,564.00
2018-08-13T04:08:43.644Z,556.00
2018-08-13T04:09:43.595Z,548.00
2018-08-13T04:10:43.577Z,544.00
2018-08-13T04:11:43.582Z,540.00
2018-08-13T04:12:43.603Z,536.00
2018-08-13T04:13:43.580Z,520.00
2018-08-13T04:14:43.549Z,500.00
2018-08-13T04:15:43.524Z,488.00
2018-08-13T04:16:43.526Z,492.00
2018-08-13T04:17:43.529Z,516.00
2018-08-13T04:18:43.530Z,544.00
2018-08-13T04:19:43.479Z,576.00
2018-08-13T04:20:43.464Z,624.00
2018-08-13T04:21:43.460Z,676.00
2018-08-13T04:22:43.474Z,728.00
2018-08-13T04:23:43.440Z,764.00
2018-08-13T04:24:43.424Z,792.00
2018-08-13T04:25:43.410Z,816.00
2018-08-13T04:26:43.401Z,816.00
2018-08-13T04:27:52.849Z,796.00
2018-08-13T04:28:43.385Z,760.00
2018-08-13T04:29:43.406Z,732.00
2018-08-13T04:30:51.361Z,724.00
2018-08-13T04:31:43.346Z,732.00
2018-08-13T04:32:43.443Z,760.00
2018-08-13T04:33:43.312Z,788.00
2018-08-13T04:34:43.302Z,824.00
2018-08-13T04:35:43.290Z,864.00
2018-08-13T04:36:43.279Z,912.00
2018-08-13T04:37:43.304Z,968.00
2018-08-13T04:38:43.425Z,1028.00
2018-08-13T04:39:43.284Z,1088.00
2018-08-13T04:40:43.230Z,1156.00
2018-08-13T04:41:43.234Z,1224.00
2018-08-13T04:42:43.210Z,1308.00
2018-08-13T04:43:43.244Z,1392.00
2018-08-13T04:44:43.190Z,1504.00
2018-08-13T04:45:43.186Z,1636.00
2018-08-13T04:46:43.169Z,1788.00
2018-08-13T04:47:43.156Z,1952.00
2018-08-13T04:48:43.180Z,2112.00
2018-08-13T04:49:43.132Z,2248.00
2018-08-13T04:50:43.124Z,2360.00
2018-08-13T04:51:43.123Z,2452.00
2018-08-13T04:52:43.094Z,2536.00
2018-08-13T04:53:43.139Z,2632.00
2018-08-13T04:54:43.087Z,2716.00
2018-08-13T04:55:43.062Z,2780.00
2018-08-13T04:56:43.058Z,2828.00
2018-08-13T04:57:43.046Z,2896.00
2018-08-13T04:58:43.062Z,2988.00
2018-08-13T04:59:43.050Z,3112.00
2018-08-13T05:00:43.024Z,3208.00
2018-08-13T05:01:43.002Z,3268.00
2018-08-13T05:02:42.997Z,3288.00
2018-08-13T05:03:42.975Z,3312.00
2018-08-13T05:04:43.005Z,3336.00
2018-08-13T05:05:42.961Z,3336.00
2018-08-13T05:06:42.947Z,3320.00
2018-08-13T05:07:42.939Z,3312.00
2018-08-13T05:08:42.934Z,3320.00
2018-08-13T05:09:42.955Z,3324.00
2018-08-13T05:10:42.931Z,3292.00
2018-08-13T05:11:42.897Z,3252.00
2018-08-13T05:12:42.884Z,3212.00
2018-08-13T05:13:42.877Z,3216.00
2018-08-13T05:14:42.870Z,3236.00
2018-08-13T05:15:42.897Z,3276.00
2018-08-13T05:16:42.840Z,3308.00
2018-08-13T05:17:42.829Z,3360.00
2018-08-13T05:18:42.827Z,3420.00
2018-08-13T05:19:42.849Z,3468.00
2018-08-13T05:20:42.843Z,3544.00
2018-08-13T05:21:42.787Z,3608.00
2018-08-13T05:22:42.773Z,3652.00
2018-08-13T05:23:42.764Z,3676.00
2018-08-13T05:24:42.749Z,3696.00
2018-08-13T05:25:42.786Z,3744.00
2018-08-13T05:26:42.725Z,3800.00
2018-08-13T05:27:42.711Z,3832.00
2018-08-13T05:28:42.741Z,3844.00
2018-08-13T05:29:42.698Z,3868.00
2018-08-13T05:30:42.725Z,3928.00
2018-08-13T05:31:42.675Z,4024.00
2018-08-13T05:32:42.667Z,4176.00
2018-08-13T05:33:50.382Z,4400.00
2018-08-13T05:34:42.630Z,4664.00
2018-08-13T05:35:42.651Z,4964.00
2018-08-13T05:36:42.606Z,5264.00
2018-08-13T05:37:42.597Z,5492.00
2018-08-13T05:38:42.632Z,5680.00
2018-08-13T05:39:42.568Z,5808.00
2018-08-13T05:40:42.564Z,5880.00
2018-08-13T05:41:42.552Z,5852.00
2018-08-13T05:42:42.543Z,5736.00
2018-08-13T05:43:42.589Z,5620.00
2018-08-13T05:44:42.515Z,5540.00
2018-08-13T05:45:42.509Z,5520.00
2018-08-13T05:46:42.503Z,5528.00
2018-08-13T05:47:42.490Z,5584.00
2018-08-13T05:48:42.504Z,5676.00
2018-08-13T05:49:42.496Z,5840.00
2018-08-13T05:50:42.451Z,5992.00
2018-08-13T05:51:42.432Z,6152.00
2018-08-13T05:52:42.428Z,6340.00
2018-08-13T05:53:42.421Z,6556.00
2018-08-13T05:54:42.437Z,6744.00
2018-08-13T05:55:42.398Z,6928.00
2018-08-13T05:56:42.411Z,7120.00
2018-08-13T05:57:49.910Z,7284.00
2018-08-13T05:58:42.370Z,7400.00
2018-08-13T05:59:42.349Z,7480.00
2018-08-13T06:00:49.952Z,7428.00
2018-08-13T06:01:42.367Z,7348.00
2018-08-13T06:02:42.325Z,7228.00
2018-08-13T06:03:49.987Z,7192.00
2018-08-13T06:04:42.305Z,7232.00
2018-08-13T06:05:42.296Z,7256.00
2018-08-13T06:06:52.527Z,7208.00
2018-08-13T06:07:42.279Z,7152.00
2018-08-13T06:08:42.260Z,7208.00
2018-08-13T06:09:50.049Z,7352.00
2018-08-13T06:10:42.269Z,7476.00
2018-08-13T06:11:42.325Z,7628.00
2018-08-13T06:12:50.094Z,7764.00
2018-08-13T06:13:42.236Z,7948.00
2018-08-13T06:14:42.180Z,8060.00
2018-08-13T06:15:51.109Z,8224.00
2018-08-13T06:16:42.166Z,8268.00
2018-08-13T06:17:42.149Z,8304.00
2018-08-13T06:18:42.179Z,8268.00
2018-08-13T06:19:42.129Z,8228.00
2018-08-13T06:20:42.116Z,8228.00
2018-08-13T06:21:52.175Z,8236.00
2018-08-13T06:22:42.100Z,8200.00
2018-08-13T06:23:42.089Z,8132.00
2018-08-13T06:24:49.685Z,8068.00
2018-08-13T06:25:42.069Z,7920.00
2018-08-13T06:26:42.089Z,7732.00
2018-08-13T06:27:49.709Z,7588.00
2018-08-13T06:28:42.101Z,7592.00
2018-08-13T06:29:42.031Z,7684.00
2018-08-13T06:30:49.753Z,7772.00
2018-08-13T06:31:42.005Z,7832.00
2018-08-13T06:32:42.035Z,7820.00
2018-08-13T06:33:49.774Z,7788.00
2018-08-13T06:34:42.011Z,7720.00
2018-08-13T06:35:41.982Z,7564.00
2018-08-13T06:36:49.816Z,7388.00
2018-08-13T06:37:41.932Z,7112.00
2018-08-13T06:38:41.925Z,6832.00
2018-08-13T06:39:51.380Z,6464.00
2018-08-13T06:40:41.907Z,6164.00
2018-08-13T06:41:41.876Z,5936.00
2018-08-13T06:42:49.880Z,5744.00
2018-08-13T06:43:41.863Z,5616.00
2018-08-13T06:44:41.853Z,5548.00
2018-08-13T06:45:41.881Z,5596.00
2018-08-13T06:46:41.822Z,5812.00
2018-08-13T06:47:41.814Z,6232.00
2018-08-13T06:48:49.414Z,6664.00
2018-08-13T06:49:41.801Z,6928.00
2018-08-13T06:50:41.814Z,6972.00
2018-08-13T06:51:41.800Z,6888.00
2018-08-13T06:52:41.761Z,6796.00
2018-08-13T06:53:41.750Z,6712.00
2018-08-13T06:54:41.738Z,6832.00
2018-08-13T06:55:41.722Z,7172.00
2018-08-13T06:56:41.764Z,7572.00
2018-08-13T06:57:49.432Z,7876.00
2018-08-13T06:58:41.698Z,7964.00
2018-08-13T06:59:41.679Z,7796.00
2018-08-13T07:00:49.526Z,7544.00
2018-08-13T07:01:41.707Z,7420.00
2018-08-13T07:02:41.645Z,7416.00
2018-08-13T07:03:49.519Z,7328.00
2018-08-13T07:04:41.636Z,7092.00
2018-08-13T07:05:41.621Z,6944.00
2018-08-13T07:06:51.079Z,7028.00
2018-08-13T07:07:41.641Z,7244.00
2018-08-13T07:08:41.601Z,7620.00
2018-08-13T07:09:49.592Z,8320.00
2018-08-13T07:10:41.571Z,9188.00
2018-08-13T07:11:41.553Z,9832.00
2018-08-13T07:12:50.651Z,10156.00
2018-08-13T07:13:41.539Z,10276.00
2018-08-13T07:14:41.521Z,10500.00
2018-08-13T07:15:41.577Z,10688.00
2018-08-13T07:16:41.501Z,10684.00
2018-08-13T07:17:41.525Z,10484.00
2018-08-13T07:18:41.486Z,10412.00
2018-08-13T07:19:41.467Z,10408.00
2018-08-13T07:20:41.465Z,10528.00
2018-08-13T07:21:41.447Z,10808.00
2018-08-13T07:22:41.471Z,11228.00
2018-08-13T07:23:41.427Z,11496.00
2018-08-13T07:24:41.448Z,11968.00
2018-08-13T07:25:41.410Z,12376.00
2018-08-13T07:26:41.396Z,12808.00
2018-08-13T07:27:41.424Z,13036.00
2018-08-13T07:28:41.369Z,13156.00
2018-08-13T07:29:41.402Z,13188.00
2018-08-13T07:30:41.342Z,13204.00
2018-08-13T07:31:41.384Z,13172.00
2018-08-13T07:32:41.328Z,13844.00
2018-08-13T07:33:41.340Z,14672.00
2018-08-13T07:34:41.338Z,15016.00
2018-08-13T07:35:41.285Z,14700.00
2018-08-13T07:36:49.159Z,13868.00
2018-08-13T07:37:41.260Z,13016.00
2018-08-13T07:38:41.246Z,12812.00
2018-08-13T07:39:41.276Z,13292.00
2018-08-13T07:40:41.228Z,13732.00
2018-08-13T07:41:41.263Z,13884.00
2018-08-13T07:42:41.210Z,14032.00
2018-08-13T07:43:41.199Z,13964.00
2018-08-13T07:44:41.187Z,13736.00
2018-08-13T07:45:41.210Z,13260.00
2018-08-13T07:46:41.202Z,12820.00
2018-08-13T07:47:41.168Z,12696.00
2018-08-13T07:48:48.693Z,12508.00
2018-08-13T07:49:41.162Z,12264.00
2018-08-13T07:50:41.177Z,12284.00
2018-08-13T07:51:48.808Z,12240.00
2018-08-13T07:52:41.303Z,12460.00
2018-08-13T07:53:41.085Z,12856.00
2018-08-13T07:54:41.099Z,13380.00
2018-08-13T07:55:41.067Z,13908.00
2018-08-13T07:56:41.048Z,14260.00
2018-08-13T07:57:41.069Z,14116.00
2018-08-13T07:58:41.031Z,13552.00
2018-08-13T07:59:41.008Z,12680.00
2018-08-13T08:00:41.038Z,11704.00
2018-08-13T08:01:40.992Z,11212.00
2018-08-13T08:02:41.012Z,11188.00
2018-08-13T08:03:48.742Z,11384.00
2018-08-13T08:04:40.958Z,11756.00
2018-08-13T08:05:40.984Z,12348.00
2018-08-13T08:06:40.949Z,13104.00
2018-08-13T08:07:40.919Z,13880.00
2018-08-13T08:08:40.919Z,14868.00
2018-08-13T08:09:40.893Z,15796.00
2018-08-13T08:10:40.923Z,16352.00
2018-08-13T08:11:40.880Z,16520.00
2018-08-13T08:12:40.868Z,16360.00
2018-08-13T08:13:40.860Z,16168.00
2018-08-13T08:14:40.873Z,16212.00
2018-08-13T08:15:50.298Z,16648.00
2018-08-13T08:16:40.850Z,17504.00
2018-08-13T08:17:40.811Z,18464.00
2018-08-13T08:18:49.814Z,19424.00
2018-08-13T08:19:40.797Z,20128.00
2018-08-13T08:20:40.776Z,20352.00
2018-08-13T08:21:50.881Z,20352.00
2018-08-13T08:22:40.765Z,20256.00
2018-08-13T08:23:40.758Z,19712.00
2018-08-13T08:24:40.755Z,19776.00
2018-08-13T08:25:40.768Z,20480.00
2018-08-13T08:26:40.777Z,21152.00
2018-08-13T08:27:40.719Z,21536.00
2018-08-13T08:28:40.707Z,22144.00
2018-08-13T08:29:40.691Z,22496.00
2018-08-13T08:30:40.704Z,22400.00
2018-08-13T08:31:40.725Z,21888.00
2018-08-13T08:32:40.667Z,21184.00
2018-08-13T08:33:40.639Z,20320.00
2018-08-13T08:34:40.706Z,19552.00
2018-08-13T08:35:40.633Z,19360.00
2018-08-13T08:36:40.671Z,19840.00
2018-08-13T08:37:40.618Z,20768.00
2018-08-13T08:38:40.585Z,21664.00
2018-08-13T08:39:40.589Z,22848.00
2018-08-13T08:40:40.667Z,24000.00
2018-08-13T08:41:40.617Z,24768.00
2018-08-13T08:42:40.619Z,25792.00
2018-08-13T08:43:40.535Z,25696.00
2018-08-13T08:44:40.527Z,25472.00
2018-08-13T08:45:40.529Z,24800.00
2018-08-13T08:46:40.533Z,24128.00
2018-08-13T08:47:40.535Z,23264.00
2018-08-13T08:48:40.531Z,22752.00
2018-08-13T08:49:40.480Z,21824.00
2018-08-13T08:50:40.451Z,20832.00
2018-08-13T08:51:40.439Z,19840.00
2018-08-13T08:52:40.481Z,20000.00
2018-08-13T08:53:40.573Z,20480.00
2018-08-13T08:54:40.422Z,21792.00
2018-08-13T08:55:40.393Z,22912.00
2018-08-13T08:56:40.430Z,24992.00
2018-08-13T08:57:40.373Z,26560.00
2018-08-13T08:58:41.345Z,27136.00
2018-08-13T08:59:40.365Z,27520.00
2018-08-13T09:00:40.351Z,27072.00
2018-08-13T09:01:40.339Z,26848.00
2018-08-13T09:02:40.324Z,26528.00
2018-08-13T09:03:40.332Z,26080.00
2018-08-13T09:04:40.322Z,26112.00
2018-08-13T09:05:40.296Z,27552.00
2018-08-13T09:06:40.276Z,26464.00
2018-08-13T09:07:45.606Z,26400.00
2018-08-13T09:08:41.305Z,25952.00
2018-08-13T09:09:40.254Z,25664.00
2018-08-13T09:10:40.262Z,25120.00
2018-08-13T09:11:40.228Z,24640.00
2018-08-13T09:12:40.258Z,24192.00
2018-08-13T09:13:40.196Z,23488.00
2018-08-13T09:14:40.196Z,22368.00
2018-08-13T09:15:40.240Z,20704.00
2018-08-13T09:16:40.193Z,19328.00
2018-08-13T09:17:40.152Z,18624.00
2018-08-13T09:18:40.143Z,18720.00
2018-08-13T09:19:40.186Z,19552.00
2018-08-13T09:20:40.130Z,20608.00
2018-08-13T09:21:40.131Z,21984.00
2018-08-13T09:22:40.125Z,22240.00
2018-08-13T09:23:40.127Z,23104.00
2018-08-13T09:24:40.151Z,23360.00
2018-08-13T09:25:40.239Z,23456.00
2018-08-13T09:26:40.076Z,23904.00
2018-08-13T09:27:40.092Z,25952.00
2018-08-13T09:28:40.084Z,27776.00
2018-08-13T09:29:40.087Z,30976.00
2018-08-13T09:30:40.026Z,34368.00
2018-08-13T09:31:40.020Z,34080.00
2018-08-13T09:32:40.027Z,35136.00
2018-08-13T09:33:40.005Z,32256.00
2018-08-13T09:34:40.049Z,34880.00
2018-08-13T09:35:39.971Z,39520.00
2018-08-13T09:36:39.965Z,31968.00
2018-08-13T09:37:40.007Z,33248.00
2018-08-13T09:38:39.954Z,29632.00
2018-08-13T09:39:39.970Z,31424.00
2018-08-13T09:40:39.944Z,45408.00
2018-08-13T09:41:39.903Z,95648.00
2018-08-13T09:42:39.896Z,65536.00
2018-08-13T09:43:39.915Z,81824.00
2018-08-13T09:44:39.865Z,84448.00
2018-08-13T09:45:39.899Z,79296.00
2018-08-13T09:46:39.836Z,77568.00
2018-08-13T09:47:39.836Z,78432.00
2018-08-13T09:48:39.820Z,80672.00
2018-08-13T09:49:39.818Z,84736.00
2018-08-13T09:50:39.847Z,88672.00
2018-08-13T09:51:39.814Z,85504.00
2018-08-13T09:52:39.824Z,87456.00
2018-08-13T09:53:39.808Z,85056.00
2018-08-13T09:54:39.777Z,93376.00
2018-08-13T09:55:39.799Z,97024.00
2018-08-13T09:56:39.748Z,97728.00
2018-08-13T09:57:39.769Z,105600.00
2018-08-13T09:58:39.757Z,102016.00
2018-08-13T09:59:39.714Z,57760.00
2018-08-13T10:00:39.837Z,64224.00
2018-08-13T10:01:39.689Z,72448.00
2018-08-13T10:02:39.690Z,61792.00
2018-08-13T10:03:39.707Z,39488.00
2018-08-13T10:04:39.661Z,32480.00
2018-08-13T10:05:39.658Z,32800.00
2018-08-13T10:06:39.676Z,35680.00
2018-08-13T10:07:39.667Z,41024.00
2018-08-13T10:08:39.634Z,46208.00
2018-08-13T10:09:39.645Z,39104.00
2018-08-13T10:10:39.597Z,45536.00
2018-08-13T10:11:39.611Z,76608.00
2018-08-13T10:12:39.587Z,40448.00
2018-08-13T10:13:39.571Z,82656.00
2018-08-13T10:14:39.600Z,110976.00
2018-08-13T10:15:39.588Z,107104.00
2018-08-13T10:16:39.545Z,84320.00
2018-08-13T10:17:39.677Z,105984.00
2018-08-13T10:18:39.520Z,104768.00
2018-08-13T10:19:39.548Z,101376.00
2018-08-13T10:20:39.505Z,101568.00
2018-08-13T10:21:39.518Z,100032.00
2018-08-13T10:22:39.478Z,102048.00
2018-08-13T10:23:39.473Z,101696.00
2018-08-13T10:24:39.519Z,103584.00
2018-08-13T10:25:39.442Z,101696.00
2018-08-13T10:26:39.434Z,92800.00
2018-08-13T10:27:39.430Z,92672.00
2018-08-13T10:28:39.416Z,90304.00
2018-08-13T10:29:39.459Z,92224.00
2018-08-13T10:30:39.388Z,90272.00
2018-08-13T10:31:39.400Z,97792.00
2018-08-13T10:32:39.402Z,102272.00
2018-08-13T10:33:39.404Z,109440.00
2018-08-13T10:34:39.426Z,63520.00
2018-08-13T10:35:39.409Z,51680.00
2018-08-13T10:36:39.340Z,38176.00
2018-08-13T10:37:39.364Z,39168.00
2018-08-13T10:38:39.318Z,47008.00
2018-08-13T10:39:39.298Z,45664.00
2018-08-13T10:40:39.360Z,76576.00
2018-08-13T10:41:39.278Z,42848.00
2018-08-13T10:42:39.263Z,36320.00
2018-08-13T10:43:39.297Z,42304.00
2018-08-13T10:44:39.262Z,35392.00
2018-08-13T10:45:39.286Z,72384.00
2018-08-13T10:46:39.234Z,34720.00
2018-08-13T10:47:39.214Z,121760.00
2018-08-13T10:48:39.208Z,130272.00
2018-08-13T10:49:39.277Z,52544.00
2018-08-13T10:50:39.236Z,90944.00
2018-08-13T10:51:39.243Z,85536.00
2018-08-13T10:52:39.196Z,59808.00
2018-08-13T10:53:39.169Z,44960.00
2018-08-13T10:54:39.144Z,50752.00
2018-08-13T10:55:39.160Z,57216.00
2018-08-13T10:56:39.169Z,74976.00
2018-08-13T10:57:39.174Z,90464.00
2018-08-13T10:58:39.133Z,81600.00
2018-08-13T10:59:39.133Z,71328.00
2018-08-13T11:00:39.153Z,99616.00
2018-08-13T11:01:39.154Z,99552.00
2018-08-13T11:02:39.084Z,97824.00
2018-08-13T11:03:39.113Z,96992.00
2018-08-13T11:04:39.065Z,97056.00
2018-08-13T11:05:39.051Z,94496.00
2018-08-13T11:06:39.109Z,97152.00
2018-08-13T11:07:39.062Z,95136.00
2018-08-13T11:08:39.052Z,96608.00
2018-08-13T11:09:39.016Z,93280.00
2018-08-13T11:10:38.999Z,91328.00
2018-08-13T11:11:39.019Z,91936.00
2018-08-13T11:12:39.025Z,91072.00
2018-08-13T11:13:38.970Z,92480.00
2018-08-13T11:14:38.986Z,96736.00
2018-08-13T11:15:39.006Z,98944.00
2018-08-13T11:16:38.945Z,99936.00
2018-08-13T11:17:38.975Z,101056.00
2018-08-13T11:18:38.961Z,59200.00
2018-08-13T11:19:38.921Z,34688.00
2018-08-13T11:20:38.912Z,40864.00
2018-08-13T11:21:38.963Z,44928.00
2018-08-13T11:22:38.890Z,43488.00
2018-08-13T11:23:38.919Z,38816.00
2018-08-13T11:24:38.902Z,35872.00
2018-08-13T11:25:38.909Z,34528.00
2018-08-13T11:26:38.867Z,37888.00
2018-08-13T11:27:38.824Z,42464.00
2018-08-13T11:28:38.980Z,66944.00
2018-08-13T11:29:38.822Z,103840.00
2018-08-13T11:30:38.804Z,50368.00
2018-08-13T11:31:38.800Z,46144.00
2018-08-13T11:32:38.776Z,38496.00
2018-08-13T11:33:38.805Z,69216.00
2018-08-13T11:34:38.759Z,58272.00
2018-08-13T11:35:38.842Z,104640.00
2018-08-13T11:36:38.789Z,96832.00
2018-08-13T11:37:38.725Z,71520.00
2018-08-13T11:38:38.748Z,101664.00
2018-08-13T11:39:38.792Z,98336.00
2018-08-13T11:40:38.718Z,96672.00
2018-08-13T11:41:38.706Z,66752.00
2018-08-13T11:42:38.691Z,107552.00
2018-08-13T11:43:38.662Z,100928.00
2018-08-13T11:44:38.683Z,91136.00
2018-08-13T11:45:38.644Z,101440.00
2018-08-13T11:46:38.634Z,101280.00
2018-08-13T11:47:38.660Z,93984.00
2018-08-13T11:48:38.655Z,85504.00
2018-08-13T11:49:38.670Z,52640.00
2018-08-13T11:50:38.589Z,67776.00
2018-08-13T11:51:38.586Z,67840.00
2018-08-13T11:52:38.596Z,71296.00
2018-08-13T11:53:38.580Z,67616.00
2018-08-13T11:54:38.587Z,71648.00
2018-08-13T11:55:38.566Z,89056.00
2018-08-13T11:56:38.542Z,101536.00
2018-08-13T11:57:38.538Z,101312.00
2018-08-13T11:58:38.520Z,99072.00
2018-08-13T11:59:38.552Z,98752.00
2018-08-13T12:00:38.525Z,101120.00
2018-08-13T12:01:38.497Z,98400.00
2018-08-13T12:02:38.526Z,83744.00
2018-08-13T12:03:38.477Z,78816.00
2018-08-13T12:04:38.497Z,63840.00
2018-08-13T12:05:38.454Z,76000.00
2018-08-13T12:06:38.488Z,75264.00
2018-08-13T12:07:38.432Z,80000.00
2018-08-13T12:08:38.449Z,81120.00
2018-08-13T12:09:38.425Z,96832.00
2018-08-13T12:10:38.476Z,101760.00
2018-08-13T12:11:46.427Z,105952.00
2018-08-13T12:12:38.448Z,39712.00
2018-08-13T12:13:38.377Z,33984.00
2018-08-13T12:14:38.361Z,35552.00
2018-08-13T12:15:38.405Z,57440.00
2018-08-13T12:16:38.341Z,58720.00
2018-08-13T12:17:38.331Z,50560.00